createdAt,value
2017-11-20T00:01:43.108Z,51.70
2017-11-20T00:04:11.963Z,51.70
2017-11-20T00:06:40.042Z,51.70
2017-11-20T00:09:08.226Z,52.20
2017-11-20T00:11:36.293Z,51.70
2017-11-20T00:14:04.355Z,51.70
2017-11-20T00:16:32.497Z,51.70
2017-11-20T00:19:00.603Z,51.80
2017-11-20T00:21:28.694Z,51.80
2017-11-20T00:23:56.798Z,51.80
2017-11-20T00:26:24.871Z,51.80
2017-11-20T00:28:52.932Z,51.80
2017-11-20T00:31:22.035Z,51.60
2017-11-20T00:33:50.893Z,51.70
2017-11-20T00:36:18.954Z,51.70
2017-11-20T00:38:47.069Z,51.70
2017-11-20T00:41:15.887Z,52.60
2017-11-20T00:43:44.773Z,53.10
2017-11-20T00:46:12.833Z,52.50
2017-11-20T00:48:40.860Z,52.60
2017-11-20T00:51:08.905Z,52.60
2017-11-20T00:53:36.936Z,52.60
2017-11-20T00:56:05.740Z,52.60
2017-11-20T00:58:33.770Z,52.60
2017-11-20T01:01:01.782Z,52.60
2017-11-20T01:03:29.794Z,52.70
2017-11-20T01:05:57.831Z,52.80
2017-11-20T01:08:25.818Z,52.70
2017-11-20T01:10:53.836Z,52.70
2017-11-20T01:13:21.841Z,52.70
2017-11-20T01:15:49.866Z,52.70
2017-11-20T01:18:21.896Z,52.60
2017-11-20T01:20:49.891Z,52.60
2017-11-20T01:23:18.265Z,52.50
2017-11-20T01:25:46.303Z,52.50
2017-11-20T01:28:14.322Z,52.50
2017-11-20T01:30:42.334Z,52.50
2017-11-20T01:33:10.347Z,52.50
2017-11-20T01:35:38.396Z,52.50
2017-11-20T01:38:06.399Z,52.40
2017-11-20T01:40:34.440Z,52.40
2017-11-20T01:43:02.447Z,52.40
2017-11-20T01:45:30.467Z,52.40
2017-11-20T01:47:58.534Z,52.30
2017-11-20T01:50:26.569Z,52.30
2017-11-20T01:52:55.357Z,52.30
2017-11-20T01:55:24.134Z,52.30
2017-11-20T01:57:52.205Z,52.30
2017-11-20T02:00:20.255Z,52.30
2017-11-20T02:03:00.411Z,52.20
2017-11-20T02:05:28.453Z,52.30
2017-11-20T02:07:56.526Z,52.20
2017-11-20T02:10:24.582Z,52.20
2017-11-20T02:12:52.633Z,52.30
2017-11-20T02:15:21.436Z,52.20
2017-11-20T02:17:49.493Z,52.10
2017-11-20T02:20:18.363Z,52.10
2017-11-20T02:22:46.462Z,52.10
2017-11-20T02:25:15.264Z,52.20
2017-11-20T02:27:43.350Z,52.10
2017-11-20T02:30:11.397Z,52.10
2017-11-20T02:32:40.285Z,52.10
2017-11-20T02:35:09.146Z,52.10
2017-11-20T02:37:37.252Z,52.00
2017-11-20T02:40:06.132Z,52.00
2017-11-20T02:42:35.022Z,51.90
2017-11-20T02:45:03.902Z,51.90
2017-11-20T02:47:32.747Z,51.90
2017-11-20T02:50:00.794Z,51.90
2017-11-20T02:52:28.867Z,51.80
2017-11-20T02:54:56.894Z,51.80
2017-11-20T02:57:25.005Z,51.80
2017-11-20T02:59:53.100Z,51.70
2017-11-20T03:02:21.138Z,51.70
2017-11-20T03:04:49.942Z,51.60
2017-11-20T03:07:17.961Z,51.60
2017-11-20T03:09:46.030Z,51.60
2017-11-20T03:12:14.126Z,51.60
2017-11-20T03:14:42.159Z,51.50
2017-11-20T03:17:10.203Z,51.50
2017-11-20T03:19:38.248Z,51.50
2017-11-20T03:22:07.083Z,51.40
2017-11-20T03:24:35.161Z,51.40
2017-11-20T03:27:03.195Z,51.30
2017-11-20T03:29:31.230Z,51.30
2017-11-20T03:31:59.305Z,51.30
2017-11-20T03:34:27.410Z,51.30
2017-11-20T03:36:55.441Z,51.30
2017-11-20T03:39:23.495Z,51.20
2017-11-20T03:41:51.551Z,51.10
2017-11-20T03:44:19.645Z,51.10
2017-11-20T03:46:47.655Z,51.00
2017-11-20T03:49:16.468Z,51.00
2017-11-20T03:51:44.483Z,51.00
2017-11-20T03:54:12.599Z,50.90
2017-11-20T03:56:40.638Z,50.90
2017-11-20T03:59:08.637Z,50.90
2017-11-20T04:01:37.388Z,50.90
2017-11-20T04:04:05.397Z,50.80
2017-11-20T04:06:33.412Z,50.80
2017-11-20T04:09:01.437Z,50.70
2017-11-20T04:11:30.234Z,50.70
2017-11-20T04:13:58.271Z,50.70
2017-11-20T04:16:26.287Z,50.70
2017-11-20T04:18:54.302Z,50.70
2017-11-20T04:21:22.323Z,50.50
2017-11-20T04:23:50.298Z,50.60
2017-11-20T04:26:18.306Z,50.50
2017-11-20T04:28:46.366Z,50.50
2017-11-20T04:31:14.480Z,50.40
2017-11-20T04:33:43.275Z,50.40
2017-11-20T04:36:12.169Z,50.30
2017-11-20T04:38:40.953Z,50.30
2017-11-20T04:41:10.506Z,50.20
2017-11-20T04:43:38.526Z,50.30
2017-11-20T04:46:07.364Z,50.20
2017-11-20T04:48:35.442Z,50.30
2017-11-20T04:51:03.614Z,50.20
2017-11-20T04:53:31.676Z,50.20
2017-11-20T04:55:59.684Z,50.20
2017-11-20T04:58:27.693Z,50.20
2017-11-20T05:00:55.700Z,50.10
2017-11-20T05:03:23.762Z,50.10
2017-11-20T05:05:51.844Z,50.10
2017-11-20T05:08:19.867Z,50.10
2017-11-20T05:10:48.635Z,50.00
2017-11-20T05:13:16.646Z,50.00
2017-11-20T05:15:44.674Z,50.00
2017-11-20T05:18:12.684Z,50.00
2017-11-20T05:20:40.717Z,50.00
2017-11-20T05:23:08.766Z,50.00
2017-11-20T05:25:36.759Z,49.90
2017-11-20T05:28:04.777Z,50.00
2017-11-20T05:30:32.771Z,50.00
2017-11-20T05:33:00.781Z,50.00
2017-11-20T05:35:29.555Z,49.90
2017-11-20T05:37:57.647Z,49.90
2017-11-20T05:40:27.314Z,49.90
2017-11-20T05:42:55.312Z,49.90
2017-11-20T05:45:24.989Z,49.90
2017-11-20T05:47:52.971Z,49.90
2017-11-20T05:50:20.974Z,49.80
2017-11-20T05:52:50.133Z,49.80
2017-11-20T05:55:18.163Z,49.80
2017-11-20T05:57:46.169Z,49.80
2017-11-20T06:00:15.042Z,49.80
2017-11-20T06:02:44.066Z,49.70
2017-11-20T06:05:13.052Z,49.80
2017-11-20T06:07:41.878Z,49.80
2017-11-20T06:10:10.769Z,49.80
2017-11-20T06:12:39.529Z,49.90
2017-11-20T06:15:07.527Z,49.80
2017-11-20T06:17:36.157Z,50.00
2017-11-20T06:20:04.195Z,50.00
2017-11-20T06:22:32.213Z,49.90
2017-11-20T06:25:00.225Z,50.00
2017-11-20T06:27:29.163Z,50.10
2017-11-20T06:29:57.298Z,50.10
2017-11-20T06:32:26.074Z,50.10
2017-11-20T06:34:54.892Z,50.10
2017-11-20T06:37:22.902Z,50.10
2017-11-20T06:39:50.961Z,50.10
2017-11-20T06:42:18.995Z,50.20
2017-11-20T06:44:47.013Z,50.20
2017-11-20T06:47:15.623Z,50.10
2017-11-20T06:49:43.702Z,50.10
2017-11-20T06:52:12.483Z,50.10
2017-11-20T06:54:40.494Z,50.10
2017-11-20T06:57:09.349Z,50.20
2017-11-20T06:59:38.342Z,50.20
2017-11-20T07:02:07.145Z,50.20
2017-11-20T07:04:35.787Z,50.20
2017-11-20T07:07:03.778Z,50.20
2017-11-20T07:09:31.793Z,50.10
2017-11-20T07:11:59.783Z,50.00
2017-11-20T07:14:27.778Z,50.10
2017-11-20T07:16:55.769Z,50.20
2017-11-20T07:19:24.555Z,50.20
2017-11-20T07:21:53.395Z,50.10
2017-11-20T07:24:21.419Z,50.10
2017-11-20T07:27:04.884Z,50.10
2017-11-20T07:29:44.538Z,50.00
2017-11-20T07:32:12.570Z,50.00
2017-11-20T07:34:52.996Z,50.00
2017-11-20T07:37:32.728Z,50.10
2017-11-20T07:40:12.486Z,50.00
2017-11-20T07:42:40.511Z,50.00
2017-11-20T07:45:08.523Z,50.00
2017-11-20T07:47:36.560Z,50.00
2017-11-20T07:50:04.606Z,50.00
2017-11-20T07:52:32.627Z,50.00
2017-11-20T07:55:00.668Z,49.90
2017-11-20T07:57:28.674Z,49.90
2017-11-20T07:59:56.671Z,50.00
2017-11-20T08:02:24.703Z,50.10
2017-11-20T08:04:52.714Z,50.10
2017-11-20T08:07:20.738Z,49.10
2017-11-20T08:09:48.785Z,49.00
2017-11-20T08:12:16.792Z,48.90
2017-11-20T08:14:44.799Z,48.70
2017-11-20T08:17:12.839Z,48.30
2017-11-20T08:19:40.871Z,48.10
2017-11-20T08:22:08.890Z,47.80
2017-11-20T08:24:36.897Z,47.60
2017-11-20T08:27:05.702Z,47.20
2017-11-20T08:29:33.700Z,47.20
2017-11-20T08:32:01.718Z,47.10
2017-11-20T08:34:30.519Z,46.50
2017-11-20T08:36:58.540Z,46.50
2017-11-20T08:39:26.574Z,46.30
2017-11-20T08:41:54.610Z,45.90
2017-11-20T08:44:22.642Z,45.60
2017-11-20T08:46:50.695Z,46.00
2017-11-20T08:49:18.729Z,45.40
2017-11-20T08:51:47.531Z,45.00
2017-11-20T08:54:16.373Z,45.00
2017-11-20T08:56:44.390Z,44.90
2017-11-20T08:59:13.186Z,44.70
2017-11-20T09:01:41.205Z,44.70
2017-11-20T09:04:09.304Z,44.50
2017-11-20T09:06:38.142Z,44.10
2017-11-20T09:09:06.161Z,44.10
2017-11-20T09:11:34.186Z,43.90
2017-11-20T09:14:02.257Z,43.70
2017-11-20T09:16:30.480Z,43.50
2017-11-20T09:18:58.598Z,43.40
2017-11-20T09:21:26.642Z,43.30
2017-11-20T09:23:55.446Z,43.00
2017-11-20T09:26:23.481Z,43.00
2017-11-20T09:28:51.496Z,43.00
2017-11-20T09:31:19.491Z,42.80
2017-11-20T09:33:47.561Z,42.70
2017-11-20T09:36:15.586Z,42.50
2017-11-20T09:38:44.362Z,42.40
2017-11-20T09:41:13.173Z,42.40
2017-11-20T09:43:41.223Z,42.40
2017-11-20T09:46:10.071Z,42.20
2017-11-20T09:48:38.131Z,42.20
2017-11-20T09:51:06.253Z,42.20
2017-11-20T09:53:34.338Z,42.40
2017-11-20T09:56:03.202Z,42.50
2017-11-20T09:58:31.304Z,42.50
2017-11-20T10:01:00.174Z,42.40
2017-11-20T10:03:28.285Z,42.40
2017-11-20T10:05:56.405Z,42.30
2017-11-20T10:08:24.508Z,42.30
2017-11-20T10:10:53.363Z,42.10
2017-11-20T10:13:21.430Z,42.10
2017-11-20T10:15:49.553Z,41.90
2017-11-20T10:18:18.391Z,41.70
2017-11-20T10:20:46.511Z,41.70
2017-11-20T10:23:15.363Z,41.70
2017-11-20T10:25:43.466Z,41.70
2017-11-20T10:28:12.319Z,41.50
2017-11-20T10:30:40.420Z,41.50
2017-11-20T10:33:09.255Z,41.20
2017-11-20T10:35:37.349Z,41.20
2017-11-20T10:38:05.451Z,41.10
2017-11-20T10:40:33.706Z,41.00
2017-11-20T10:43:01.829Z,40.80
2017-11-20T10:45:29.942Z,40.70
2017-11-20T10:47:58.043Z,40.60
2017-11-20T10:50:26.555Z,40.50
2017-11-20T10:52:54.654Z,40.50
2017-11-20T10:55:22.710Z,40.40
2017-11-20T10:57:50.862Z,40.20
2017-11-20T11:00:19.706Z,39.80
2017-11-20T11:02:47.813Z,39.70
2017-11-20T11:05:16.664Z,39.70
2017-11-20T11:07:44.762Z,39.70
2017-11-20T11:10:12.824Z,39.50
2017-11-20T11:12:40.938Z,39.50
2017-11-20T11:15:09.056Z,39.30
2017-11-20T11:17:41.121Z,39.10
2017-11-20T11:20:09.207Z,39.10
2017-11-20T11:22:37.311Z,39.00
2017-11-20T11:25:06.174Z,38.80
2017-11-20T11:27:34.256Z,38.80
2017-11-20T11:30:02.342Z,38.80
2017-11-20T11:32:31.211Z,38.70
2017-11-20T11:34:59.267Z,38.60
2017-11-20T11:37:27.323Z,38.60
2017-11-20T11:39:55.396Z,38.50
2017-11-20T11:42:23.503Z,38.70
2017-11-20T11:44:51.585Z,38.50
2017-11-20T11:47:20.458Z,38.50
2017-11-20T11:49:48.546Z,38.50
2017-11-20T11:52:17.418Z,38.40
2017-11-20T11:54:45.530Z,38.30
2017-11-20T11:57:13.650Z,38.40
2017-11-20T11:59:41.750Z,38.40
2017-11-20T12:02:09.855Z,38.40
2017-11-20T12:04:37.948Z,38.20
2017-11-20T12:07:06.010Z,38.30
2017-11-20T12:09:34.090Z,38.50
2017-11-20T12:12:02.202Z,38.50
2017-11-20T12:14:30.282Z,38.30
2017-11-20T12:16:58.363Z,38.40
2017-11-20T12:19:27.239Z,38.50
2017-11-20T12:21:59.177Z,38.40
2017-11-20T12:24:27.286Z,38.50
2017-11-20T12:26:56.169Z,38.60
2017-11-20T12:29:24.231Z,38.60
2017-11-20T12:31:52.328Z,38.60
2017-11-20T12:34:21.202Z,38.70
2017-11-20T12:36:49.410Z,38.70
2017-11-20T12:39:17.507Z,38.70
2017-11-20T12:41:45.570Z,38.90
2017-11-20T12:44:13.656Z,38.90
2017-11-20T12:46:41.719Z,39.20
2017-11-20T12:49:09.802Z,39.20
2017-11-20T12:51:37.891Z,39.30
2017-11-20T12:54:05.938Z,39.50
2017-11-20T12:56:34.035Z,39.60
2017-11-20T12:59:02.063Z,39.60
2017-11-20T13:01:30.142Z,39.70
2017-11-20T13:03:58.218Z,39.70
2017-11-20T13:06:26.322Z,39.60
2017-11-20T13:08:54.407Z,39.50
2017-11-20T13:11:22.502Z,39.30
2017-11-20T13:13:51.393Z,39.30
2017-11-20T13:16:20.270Z,39.40
2017-11-20T13:18:48.369Z,39.40
2017-11-20T13:21:16.454Z,39.50
2017-11-20T13:23:44.566Z,39.40
2017-11-20T13:26:12.683Z,39.40
2017-11-20T13:28:40.770Z,39.40
2017-11-20T13:31:08.869Z,39.40
2017-11-20T13:33:36.959Z,39.40
2017-11-20T13:36:05.038Z,39.30
2017-11-20T13:38:33.179Z,39.40
2017-11-20T13:41:01.266Z,39.50
2017-11-20T13:43:29.435Z,39.60
2017-11-20T13:45:57.554Z,39.90
2017-11-20T13:48:26.432Z,40.30
2017-11-20T13:50:55.292Z,40.60
2017-11-20T13:53:23.399Z,40.50
2017-11-20T13:55:52.251Z,41.10
2017-11-20T13:58:20.362Z,41.10
2017-11-20T14:00:49.262Z,41.40
2017-11-20T14:03:18.146Z,41.60
2017-11-20T14:05:47.030Z,41.90
2017-11-20T14:08:15.882Z,42.10
2017-11-20T14:10:43.992Z,42.10
2017-11-20T14:13:12.078Z,42.30
2017-11-20T14:15:40.939Z,42.80
2017-11-20T14:18:09.126Z,42.80
2017-11-20T14:20:37.989Z,43.00
2017-11-20T14:23:06.109Z,43.00
2017-11-20T14:25:34.966Z,43.30
2017-11-20T14:28:03.067Z,43.30
2017-11-20T14:30:31.906Z,43.40
2017-11-20T14:32:59.998Z,43.40
2017-11-20T14:35:28.098Z,43.40
2017-11-20T14:37:56.984Z,43.60
2017-11-20T14:40:25.870Z,43.70
2017-11-20T14:42:53.963Z,43.70
2017-11-20T14:45:22.050Z,43.80
2017-11-20T14:50:46.193Z,44.10
2017-11-20T14:53:24.870Z,44.10
2017-11-20T14:55:52.936Z,44.30
2017-11-20T14:58:20.992Z,44.40
2017-11-20T15:00:49.901Z,44.50
2017-11-20T15:03:18.015Z,44.60
2017-11-20T15:05:46.189Z,44.70
2017-11-20T15:08:14.354Z,44.90
2017-11-20T15:10:42.531Z,44.90
2017-11-20T15:13:10.647Z,45.10
2017-11-20T15:15:39.506Z,45.30
2017-11-20T15:18:07.631Z,45.30
2017-11-20T15:20:36.302Z,45.50
2017-11-20T15:23:04.418Z,45.60
2017-11-20T15:25:32.547Z,45.70
2017-11-20T15:28:01.398Z,46.20
2017-11-20T15:30:29.498Z,46.10
2017-11-20T15:32:58.400Z,46.50
2017-11-20T15:35:27.284Z,46.70
2017-11-20T15:37:56.124Z,46.80
2017-11-20T15:40:24.591Z,46.80
2017-11-20T15:42:52.671Z,46.90
2017-11-20T15:45:20.744Z,47.00
2017-11-20T15:47:48.770Z,47.20
2017-11-20T15:50:17.545Z,47.60
2017-11-20T15:52:46.333Z,47.70
2017-11-20T15:55:14.354Z,47.70
2017-11-20T15:57:42.413Z,47.70
2017-11-20T16:00:10.538Z,47.90
2017-11-20T16:02:38.546Z,47.90
2017-11-20T16:05:06.868Z,48.10
2017-11-20T16:07:34.932Z,48.20
2017-11-20T16:10:03.514Z,48.40
2017-11-20T16:12:31.527Z,48.50
2017-11-20T16:15:00.334Z,48.70
2017-11-20T16:17:28.668Z,48.70
2017-11-20T16:19:56.717Z,48.70
2017-11-20T16:22:24.769Z,48.90
2017-11-20T16:24:52.871Z,48.90
2017-11-20T16:27:20.879Z,49.00
2017-11-20T16:29:48.895Z,49.10
2017-11-20T16:32:16.903Z,49.20
2017-11-20T16:34:44.923Z,49.20
2017-11-20T16:37:12.993Z,49.30
2017-11-20T16:39:41.059Z,49.30
2017-11-20T16:42:09.125Z,49.40
2017-11-20T16:44:37.138Z,49.60
2017-11-20T16:47:05.212Z,49.60
2017-11-20T16:49:33.270Z,49.80
2017-11-20T16:52:01.322Z,49.90
2017-11-20T16:54:29.402Z,50.00
2017-11-20T16:57:10.373Z,50.10
2017-11-20T16:59:39.077Z,50.20
2017-11-20T17:02:33.591Z,50.20
2017-11-20T17:05:01.874Z,50.30
2017-11-20T17:07:30.696Z,50.30
2017-11-20T17:09:58.852Z,50.40
2017-11-20T17:12:27.838Z,50.50
2017-11-20T17:14:56.766Z,50.60
2017-11-20T17:17:24.768Z,50.60
2017-11-20T17:19:52.810Z,50.60
2017-11-20T17:22:20.838Z,50.70
2017-11-20T17:24:48.891Z,50.80
2017-11-20T17:27:16.946Z,50.80
2017-11-20T17:29:44.954Z,50.80
2017-11-20T17:32:13.102Z,50.90
2017-11-20T17:34:41.964Z,50.90
2017-11-20T17:37:09.966Z,50.80
2017-11-20T17:39:37.989Z,50.80
2017-11-20T17:42:06.031Z,50.80
2017-11-20T17:44:34.070Z,50.80
2017-11-20T17:47:03.037Z,50.80
2017-11-20T17:49:31.798Z,50.90
2017-11-20T17:52:00.597Z,50.80
2017-11-20T17:54:30.442Z,50.80
2017-11-20T17:56:58.494Z,50.80
2017-11-20T17:59:28.233Z,50.80
2017-11-20T18:01:56.501Z,50.70
2017-11-20T18:04:24.570Z,50.70
2017-11-20T18:06:52.572Z,50.60
2017-11-20T18:09:20.591Z,50.50
2017-11-20T18:11:48.649Z,50.40
2017-11-20T18:14:17.495Z,50.20
2017-11-20T18:16:45.630Z,50.20
2017-11-20T18:19:13.698Z,50.10
2017-11-20T18:21:41.792Z,50.00
2017-11-20T18:24:09.843Z,50.00
2017-11-20T18:26:37.862Z,50.00
2017-11-20T18:29:06.013Z,49.90
2017-11-20T18:31:34.047Z,49.80
2017-11-20T18:34:02.092Z,49.80
2017-11-20T18:36:30.223Z,49.70
2017-11-20T18:38:58.316Z,49.70
2017-11-20T18:41:26.430Z,49.70
2017-11-20T18:43:55.311Z,49.60
2017-11-20T18:46:24.162Z,49.50
2017-11-20T18:48:52.242Z,49.50
2017-11-20T18:51:20.289Z,49.50
2017-11-20T18:53:48.362Z,49.50
2017-11-20T18:56:16.489Z,49.40
2017-11-20T18:58:45.450Z,49.40
2017-11-20T19:01:25.470Z,49.50
2017-11-20T19:07:10.634Z,49.40
2017-11-20T19:09:39.512Z,49.30
2017-11-20T19:12:08.338Z,49.40
2017-11-20T19:14:36.431Z,49.40
2017-11-20T19:17:04.446Z,49.30
2017-11-20T19:19:33.260Z,49.40
2017-11-20T19:22:01.356Z,49.40
2017-11-20T19:24:29.465Z,49.30
2017-11-20T19:26:57.549Z,49.30
2017-11-20T19:29:26.439Z,49.20
2017-11-20T19:31:55.222Z,49.20
2017-11-20T19:34:23.264Z,49.20
2017-11-20T19:36:51.349Z,49.10
2017-11-20T19:39:19.414Z,49.00
2017-11-20T19:41:47.444Z,49.00
2017-11-20T19:44:15.477Z,49.00
2017-11-20T19:46:43.501Z,49.00
2017-11-20T19:49:11.537Z,49.00
2017-11-20T19:51:40.335Z,48.90
2017-11-20T19:54:08.498Z,48.90
2017-11-20T19:56:36.548Z,48.90
2017-11-20T19:59:04.599Z,48.90
2017-11-20T20:01:32.618Z,48.80
2017-11-20T20:04:01.455Z,48.70
2017-11-20T20:06:29.486Z,48.70
2017-11-20T20:08:57.484Z,48.70
2017-11-20T20:11:25.539Z,48.60
2017-11-20T20:13:53.700Z,48.70
2017-11-20T20:16:28.962Z,48.70
2017-11-20T20:18:57.014Z,48.70
2017-11-20T20:21:25.056Z,48.60
2017-11-20T20:23:53.870Z,48.50
2017-11-20T20:26:21.943Z,48.50
2017-11-20T20:28:49.970Z,48.50
2017-11-20T20:31:17.999Z,48.50
2017-11-20T20:33:45.993Z,48.50
2017-11-20T20:36:14.026Z,48.40
2017-11-20T20:38:42.062Z,48.40
2017-11-20T20:41:10.110Z,48.30
2017-11-20T20:43:38.137Z,48.30
2017-11-20T20:46:06.225Z,48.20
2017-11-20T20:48:34.283Z,48.10
2017-11-20T20:51:02.297Z,48.00
2017-11-20T20:53:30.304Z,48.00
2017-11-20T20:55:59.138Z,47.90
2017-11-20T20:58:27.143Z,47.80
2017-11-20T21:00:55.233Z,47.70
2017-11-20T21:03:23.286Z,47.70
2017-11-20T21:05:51.326Z,47.60
2017-11-20T21:08:19.340Z,48.20
2017-11-20T21:10:53.587Z,47.60
2017-11-20T21:13:21.589Z,47.50
2017-11-20T21:15:49.611Z,47.50
2017-11-20T21:18:18.455Z,47.50
2017-11-20T21:20:46.487Z,47.50
2017-11-20T21:23:14.498Z,47.40
2017-11-20T21:25:42.543Z,47.40
2017-11-20T21:28:10.563Z,47.30
2017-11-20T21:30:38.596Z,47.30
2017-11-20T21:33:06.645Z,48.20
2017-11-20T21:35:34.666Z,48.20
2017-11-20T21:38:02.685Z,48.20
2017-11-20T21:40:30.739Z,48.10
2017-11-20T21:42:59.536Z,48.00
2017-11-20T21:45:27.572Z,48.00
2017-11-20T21:47:55.589Z,47.90
2017-11-20T21:50:23.646Z,47.90
2017-11-20T21:52:51.682Z,47.90
2017-11-20T21:55:19.711Z,47.80
2017-11-20T21:57:47.778Z,47.70
2017-11-20T22:00:15.889Z,47.70
2017-11-20T22:02:43.962Z,47.70
2017-11-20T22:05:12.066Z,47.60
2017-11-20T22:07:40.898Z,47.50
2017-11-20T22:10:08.944Z,47.40
2017-11-20T22:15:40.915Z,47.20
2017-11-20T22:18:09.482Z,47.30
2017-11-20T22:20:37.794Z,47.30
2017-11-20T22:23:06.884Z,47.30
2017-11-20T22:25:34.953Z,47.20
2017-11-20T22:28:03.009Z,47.30
2017-11-20T22:30:31.846Z,47.30
2017-11-20T22:32:59.905Z,47.30
2017-11-20T22:35:27.926Z,47.30
2017-11-20T22:37:55.982Z,47.20
2017-11-20T22:40:24.012Z,47.10
2017-11-20T22:42:52.075Z,47.20
2017-11-20T22:45:20.119Z,47.20
2017-11-20T22:47:48.950Z,47.20
2017-11-20T22:50:16.957Z,47.10
2017-11-20T22:52:45.011Z,47.10
2017-11-20T22:55:13.019Z,47.00
2017-11-20T22:57:41.857Z,47.00
2017-11-20T23:00:09.889Z,47.00
2017-11-20T23:02:38.677Z,46.90
2017-11-20T23:05:07.346Z,46.90
2017-11-20T23:07:35.291Z,46.90
2017-11-20T23:10:03.228Z,46.90
2017-11-20T23:12:31.254Z,46.90
2017-11-20T23:14:59.226Z,46.80
2017-11-20T23:17:27.185Z,46.70
2017-11-20T23:19:55.053Z,46.80
2017-11-20T23:22:23.028Z,46.80
2017-11-20T23:24:50.897Z,46.90
2017-11-20T23:27:18.803Z,46.90
2017-11-20T23:29:46.738Z,46.90
2017-11-20T23:32:14.585Z,46.90
2017-11-20T23:34:42.422Z,46.90
2017-11-20T23:37:10.281Z,46.90
2017-11-20T23:39:38.120Z,47.00
2017-11-20T23:42:06.763Z,47.00
2017-11-20T23:44:34.597Z,47.00
2017-11-20T23:47:02.487Z,47.00
2017-11-20T23:49:30.382Z,47.00
2017-11-20T23:51:58.289Z,47.00
2017-11-20T23:54:37.897Z,47.00
2017-11-20T23:57:05.774Z,47.00
2017-11-20T23:59:34.468Z,47.60
